sensor_id;sensor_type;location;lat;lon;timestamp;temperature;humidity
9564;DHT22;4820;50.870;4.702;2023-03-23T00:01:01;13.40;99.90
9564;DHT22;4820;50.870;4.702;2023-03-23T00:03:27;13.50;99.90
9564;DHT22;4820;50.870;4.702;2023-03-23T00:05:55;13.50;99.90
9564;DHT22;4820;50.870;4.702;2023-03-23T00:08:25;13.50;99.90
9564;DHT22;4820;50.870;4.702;2023-03-23T00:10:52;13.50;99.90
9564;DHT22;4820;50.870;4.702;2023-03-23T00:13:23;13.50;99.90
9564;DHT22;4820;50.870;4.702;2023-03-23T00:15:49;13.50;99.90
9564;DHT22;4820;50.870;4.702;2023-03-23T00:18:20;13.50;99.90
9564;DHT22;4820;50.870;4.702;2023-03-23T00:20:56;13.50;99.90
9564;DHT22;4820;50.870;4.702;2023-03-23T00:23:26;13.50;99.90
9564;DHT22;4820;50.870;4.702;2023-03-23T00:25:55;13.50;99.90
9564;DHT22;4820;50.870;4.702;2023-03-23T00:28:23;13.50;99.90
9564;DHT22;4820;50.870;4.702;2023-03-23T00:31:10;13.50;99.90
9564;DHT22;4820;50.870;4.702;2023-03-23T00:33:38;13.50;99.90
9564;DHT22;4820;50.870;4.702;2023-03-23T00:36:10;13.50;99.90
9564;DHT22;4820;50.870;4.702;2023-03-23T00:38:38;13.50;99.90
9564;DHT22;4820;50.870;4.702;2023-03-23T00:41:05;13.50;99.90
9564;DHT22;4820;50.870;4.702;2023-03-23T00:43:32;13.50;99.90
9564;DHT22;4820;50.870;4.702;2023-03-23T00:46:01;13.50;99.90
9564;DHT22;4820;50.870;4.702;2023-03-23T00:48:28;13.50;99.90
9564;DHT22;4820;50.870;4.702;2023-03-23T00:50:55;13.50;99.90
9564;DHT22;4820;50.870;4.702;2023-03-23T00:53:22;13.50;99.90
9564;DHT22;4820;50.870;4.702;2023-03-23T00:55:48;13.50;99.90
9564;DHT22;4820;50.870;4.702;2023-03-23T00:58:15;13.50;99.90
9564;DHT22;4820;50.870;4.702;2023-03-23T01:00:41;13.50;99.90
9564;DHT22;4820;50.870;4.702;2023-03-23T01:03:08;13.40;99.90
9564;DHT22;4820;50.870;4.702;2023-03-23T01:05:38;13.40;99.90
9564;DHT22;4820;50.870;4.702;2023-03-23T01:08:05;13.40;99.90
9564;DHT22;4820;50.870;4.702;2023-03-23T01:10:33;13.50;99.90
9564;DHT22;4820;50.870;4.702;2023-03-23T01:13:02;13.50;99.90
9564;DHT22;4820;50.870;4.702;2023-03-23T01:15:29;13.40;99.90
9564;DHT22;4820;50.870;4.702;2023-03-23T01:17:55;13.40;99.90
9564;DHT22;4820;50.870;4.702;2023-03-23T01:20:22;13.40;99.90
9564;DHT22;4820;50.870;4.702;2023-03-23T01:22:48;13.50;99.90
9564;DHT22;4820;50.870;4.702;2023-03-23T01:25:13;13.50;99.90
9564;DHT22;4820;50.870;4.702;2023-03-23T01:27:40;13.50;99.90
9564;DHT22;4820;50.870;4.702;2023-03-23T01:30:08;13.50;99.90
9564;DHT22;4820;50.870;4.702;2023-03-23T01:32:34;13.50;99.90
9564;DHT22;4820;50.870;4.702;2023-03-23T01:35:01;13.50;99.90
9564;DHT22;4820;50.870;4.702;2023-03-23T01:37:27;13.50;99.90
9564;DHT22;4820;50.870;4.702;2023-03-23T01:39:54;13.50;99.90
9564;DHT22;4820;50.870;4.702;2023-03-23T01:42:24;13.50;99.90
9564;DHT22;4820;50.870;4.702;2023-03-23T01:47:20;13.50;99.90
9564;DHT22;4820;50.870;4.702;2023-03-23T01:49:50;13.40;99.90
9564;DHT22;4820;50.870;4.702;2023-03-23T01:52:20;13.40;99.90
9564;DHT22;4820;50.870;4.702;2023-03-23T01:54:50;13.40;99.90
9564;DHT22;4820;50.870;4.702;2023-03-23T01:57:19;13.40;99.90
9564;DHT22;4820;50.870;4.702;2023-03-23T01:59:50;13.40;99.90
9564;DHT22;4820;50.870;4.702;2023-03-23T02:02:22;13.40;99.90
9564;DHT22;4820;50.870;4.702;2023-03-23T02:04:49;13.40;99.90
9564;DHT22;4820;50.870;4.702;2023-03-23T02:07:18;13.40;99.90
9564;DHT22;4820;50.870;4.702;2023-03-23T02:09:45;13.40;99.90
9564;DHT22;4820;50.870;4.702;2023-03-23T02:12:11;13.40;99.90
9564;DHT22;4820;50.870;4.702;2023-03-23T02:14:37;13.40;99.90
9564;DHT22;4820;50.870;4.702;2023-03-23T02:23:07;13.40;99.90
9564;DHT22;4820;50.870;4.702;2023-03-23T02:25:39;13.40;99.90
9564;DHT22;4820;50.870;4.702;2023-03-23T02:33:29;13.40;99.90
9564;DHT22;4820;50.870;4.702;2023-03-23T02:38:31;13.40;99.90
9564;DHT22;4820;50.870;4.702;2023-03-23T02:41:01;13.40;99.90
9564;DHT22;4820;50.870;4.702;2023-03-23T02:43:31;13.40;99.90
9564;DHT22;4820;50.870;4.702;2023-03-23T02:45:59;13.40;99.90
9564;DHT22;4820;50.870;4.702;2023-03-23T02:48:29;13.40;99.90
9564;DHT22;4820;50.870;4.702;2023-03-23T02:50:58;13.40;99.90
9564;DHT22;4820;50.870;4.702;2023-03-23T02:53:26;13.40;99.90
9564;DHT22;4820;50.870;4.702;2023-03-23T02:55:55;13.40;99.90
9564;DHT22;4820;50.870;4.702;2023-03-23T02:58:21;13.40;99.90
9564;DHT22;4820;50.870;4.702;2023-03-23T03:00:51;13.30;99.90
9564;DHT22;4820;50.870;4.702;2023-03-23T03:03:26;13.30;99.90
9564;DHT22;4820;50.870;4.702;2023-03-23T03:06:07;13.30;99.90
9564;DHT22;4820;50.870;4.702;2023-03-23T03:11:13;13.30;99.90
9564;DHT22;4820;50.870;4.702;2023-03-23T03:14:18;13.30;99.90
9564;DHT22;4820;50.870;4.702;2023-03-23T03:16:56;13.30;99.90
9564;DHT22;4820;50.870;4.702;2023-03-23T03:19:26;13.30;99.90
9564;DHT22;4820;50.870;4.702;2023-03-23T03:21:56;13.30;99.90
9564;DHT22;4820;50.870;4.702;2023-03-23T03:24:25;13.30;99.90
9564;DHT22;4820;50.870;4.702;2023-03-23T03:26:53;13.30;99.90
9564;DHT22;4820;50.870;4.702;2023-03-23T03:29:44;13.20;99.90
9564;DHT22;4820;50.870;4.702;2023-03-23T03:32:17;13.20;99.90
9564;DHT22;4820;50.870;4.702;2023-03-23T03:34:44;13.20;99.90
9564;DHT22;4820;50.870;4.702;2023-03-23T03:37:10;13.20;99.90
9564;DHT22;4820;50.870;4.702;2023-03-23T03:39:37;13.20;99.90
9564;DHT22;4820;50.870;4.702;2023-03-23T03:42:04;13.20;99.90
9564;DHT22;4820;50.870;4.702;2023-03-23T03:44:31;13.20;99.90
9564;DHT22;4820;50.870;4.702;2023-03-23T03:46:57;13.20;99.90
9564;DHT22;4820;50.870;4.702;2023-03-23T03:49:24;13.20;99.90
9564;DHT22;4820;50.870;4.702;2023-03-23T03:51:53;13.20;99.90
9564;DHT22;4820;50.870;4.702;2023-03-23T03:54:20;13.10;99.90
9564;DHT22;4820;50.870;4.702;2023-03-23T03:56:45;13.20;99.90
9564;DHT22;4820;50.870;4.702;2023-03-23T03:59:12;13.20;99.90
9564;DHT22;4820;50.870;4.702;2023-03-23T04:01:38;13.20;99.90
9564;DHT22;4820;50.870;4.702;2023-03-23T04:04:05;13.20;99.90
9564;DHT22;4820;50.870;4.702;2023-03-23T04:06:33;13.20;99.90
9564;DHT22;4820;50.870;4.702;2023-03-23T04:09:03;13.20;99.90
9564;DHT22;4820;50.870;4.702;2023-03-23T04:11:32;13.10;99.90
9564;DHT22;4820;50.870;4.702;2023-03-23T04:13:58;13.10;99.90
9564;DHT22;4820;50.870;4.702;2023-03-23T04:16:26;13.10;99.90
9564;DHT22;4820;50.870;4.702;2023-03-23T04:18:55;13.10;99.90
9564;DHT22;4820;50.870;4.702;2023-03-23T04:21:21;13.00;99.90
9564;DHT22;4820;50.870;4.702;2023-03-23T04:23:47;13.10;99.90
9564;DHT22;4820;50.870;4.702;2023-03-23T04:26:17;13.10;99.90
9564;DHT22;4820;50.870;4.702;2023-03-23T04:28:43;13.00;99.90
9564;DHT22;4820;50.870;4.702;2023-03-23T04:31:09;13.00;99.90
9564;DHT22;4820;50.870;4.702;2023-03-23T04:33:38;13.00;99.90
9564;DHT22;4820;50.870;4.702;2023-03-23T04:36:06;13.00;99.90
9564;DHT22;4820;50.870;4.702;2023-03-23T04:38:32;13.00;99.90
9564;DHT22;4820;50.870;4.702;2023-03-23T04:41:00;13.00;99.90
9564;DHT22;4820;50.870;4.702;2023-03-23T04:43:28;13.00;99.90
9564;DHT22;4820;50.870;4.702;2023-03-23T04:45:58;13.00;99.90
9564;DHT22;4820;50.870;4.702;2023-03-23T04:48:28;13.00;99.90
9564;DHT22;4820;50.870;4.702;2023-03-23T04:50:55;13.10;99.90
9564;DHT22;4820;50.870;4.702;2023-03-23T04:53:21;13.10;99.90
9564;DHT22;4820;50.870;4.702;2023-03-23T04:55:48;13.10;99.90
9564;DHT22;4820;50.870;4.702;2023-03-23T04:58:15;13.10;99.90
9564;DHT22;4820;50.870;4.702;2023-03-23T05:00:42;13.10;99.90
9564;DHT22;4820;50.870;4.702;2023-03-23T05:03:18;13.10;99.90
9564;DHT22;4820;50.870;4.702;2023-03-23T05:05:44;13.10;99.90
9564;DHT22;4820;50.870;4.702;2023-03-23T05:08:13;13.10;99.90
9564;DHT22;4820;50.870;4.702;2023-03-23T05:10:38;13.10;99.90
9564;DHT22;4820;50.870;4.702;2023-03-23T05:13:05;13.10;99.90
9564;DHT22;4820;50.870;4.702;2023-03-23T05:15:34;13.00;99.90
9564;DHT22;4820;50.870;4.702;2023-03-23T05:18:00;13.00;99.90
9564;DHT22;4820;50.870;4.702;2023-03-23T05:20:28;13.00;99.90
9564;DHT22;4820;50.870;4.702;2023-03-23T05:22:55;13.00;99.90
9564;DHT22;4820;50.870;4.702;2023-03-23T05:25:22;12.90;99.90
9564;DHT22;4820;50.870;4.702;2023-03-23T05:27:48;12.90;99.90
9564;DHT22;4820;50.870;4.702;2023-03-23T05:30:19;12.90;99.90
9564;DHT22;4820;50.870;4.702;2023-03-23T05:32:45;12.90;99.90
9564;DHT22;4820;50.870;4.702;2023-03-23T05:35:18;12.80;99.90
9564;DHT22;4820;50.870;4.702;2023-03-23T05:37:44;12.80;99.90
9564;DHT22;4820;50.870;4.702;2023-03-23T05:40:11;12.80;99.90
9564;DHT22;4820;50.870;4.702;2023-03-23T05:42:38;12.80;99.90
9564;DHT22;4820;50.870;4.702;2023-03-23T05:45:08;12.80;99.90
9564;DHT22;4820;50.870;4.702;2023-03-23T05:47:34;12.80;99.90
9564;DHT22;4820;50.870;4.702;2023-03-23T05:50:01;12.80;99.90
9564;DHT22;4820;50.870;4.702;2023-03-23T05:52:27;12.80;99.90
9564;DHT22;4820;50.870;4.702;2023-03-23T05:54:53;12.80;99.90
9564;DHT22;4820;50.870;4.702;2023-03-23T05:57:19;12.80;99.90
9564;DHT22;4820;50.870;4.702;2023-03-23T05:59:47;12.80;99.90
9564;DHT22;4820;50.870;4.702;2023-03-23T06:02:13;12.80;99.90
9564;DHT22;4820;50.870;4.702;2023-03-23T06:04:40;12.80;99.90
9564;DHT22;4820;50.870;4.702;2023-03-23T06:07:07;12.80;99.90
9564;DHT22;4820;50.870;4.702;2023-03-23T06:09:38;12.80;99.90
9564;DHT22;4820;50.870;4.702;2023-03-23T06:12:04;12.80;99.90
9564;DHT22;4820;50.870;4.702;2023-03-23T06:14:30;12.80;99.90
9564;DHT22;4820;50.870;4.702;2023-03-23T06:16:57;12.80;99.90
9564;DHT22;4820;50.870;4.702;2023-03-23T06:19:23;12.80;99.90
9564;DHT22;4820;50.870;4.702;2023-03-23T06:21:48;12.80;99.90
9564;DHT22;4820;50.870;4.702;2023-03-23T06:24:14;12.80;99.90
9564;DHT22;4820;50.870;4.702;2023-03-23T06:26:40;12.80;99.90
9564;DHT22;4820;50.870;4.702;2023-03-23T06:29:08;12.80;99.90
9564;DHT22;4820;50.870;4.702;2023-03-23T06:31:43;12.80;99.90
9564;DHT22;4820;50.870;4.702;2023-03-23T06:34:10;12.80;99.90
9564;DHT22;4820;50.870;4.702;2023-03-23T06:36:37;12.80;99.90
9564;DHT22;4820;50.870;4.702;2023-03-23T06:39:04;12.90;99.90
9564;DHT22;4820;50.870;4.702;2023-03-23T06:41:31;12.90;99.90
9564;DHT22;4820;50.870;4.702;2023-03-23T06:43:57;12.90;99.90
9564;DHT22;4820;50.870;4.702;2023-03-23T06:46:24;12.90;99.90
9564;DHT22;4820;50.870;4.702;2023-03-23T06:48:51;12.90;99.90
9564;DHT22;4820;50.870;4.702;2023-03-23T06:51:17;12.90;99.90
9564;DHT22;4820;50.870;4.702;2023-03-23T06:53:44;12.90;99.90
9564;DHT22;4820;50.870;4.702;2023-03-23T06:56:10;13.00;99.90
9564;DHT22;4820;50.870;4.702;2023-03-23T06:58:37;13.00;99.90
9564;DHT22;4820;50.870;4.702;2023-03-23T07:01:03;13.00;99.90
9564;DHT22;4820;50.870;4.702;2023-03-23T07:03:30;13.00;99.90
9564;DHT22;4820;50.870;4.702;2023-03-23T07:05:57;13.00;99.90
9564;DHT22;4820;50.870;4.702;2023-03-23T07:08:26;13.00;99.90
9564;DHT22;4820;50.870;4.702;2023-03-23T07:10:53;13.00;99.90
9564;DHT22;4820;50.870;4.702;2023-03-23T07:13:19;13.00;99.90
9564;DHT22;4820;50.870;4.702;2023-03-23T07:15:46;13.00;99.90
9564;DHT22;4820;50.870;4.702;2023-03-23T07:18:14;13.00;99.90
9564;DHT22;4820;50.870;4.702;2023-03-23T07:20:40;12.90;99.90
9564;DHT22;4820;50.870;4.702;2023-03-23T07:23:06;12.90;99.90
9564;DHT22;4820;50.870;4.702;2023-03-23T07:25:33;12.90;99.90
9564;DHT22;4820;50.870;4.702;2023-03-23T07:28:00;12.80;99.90
9564;DHT22;4820;50.870;4.702;2023-03-23T07:30:27;12.80;99.90
9564;DHT22;4820;50.870;4.702;2023-03-23T07:32:55;12.80;99.90
9564;DHT22;4820;50.870;4.702;2023-03-23T07:35:21;12.70;99.90
9564;DHT22;4820;50.870;4.702;2023-03-23T07:37:47;12.70;99.90
9564;DHT22;4820;50.870;4.702;2023-03-23T07:40:14;12.70;99.90
9564;DHT22;4820;50.870;4.702;2023-03-23T07:42:52;12.70;99.90
9564;DHT22;4820;50.870;4.702;2023-03-23T07:45:19;12.70;99.90
9564;DHT22;4820;50.870;4.702;2023-03-23T07:47:45;12.60;99.90
9564;DHT22;4820;50.870;4.702;2023-03-23T07:50:10;12.40;99.90
9564;DHT22;4820;50.870;4.702;2023-03-23T07:52:37;12.30;99.90
9564;DHT22;4820;50.870;4.702;2023-03-23T07:55:05;12.10;99.90
9564;DHT22;4820;50.870;4.702;2023-03-23T07:57:43;11.90;99.90
9564;DHT22;4820;50.870;4.702;2023-03-23T08:00:10;11.70;99.90
9564;DHT22;4820;50.870;4.702;2023-03-23T08:02:50;11.60;99.90
9564;DHT22;4820;50.870;4.702;2023-03-23T08:05:16;11.50;99.90
9564;DHT22;4820;50.870;4.702;2023-03-23T08:07:43;11.40;99.90
9564;DHT22;4820;50.870;4.702;2023-03-23T08:10:12;11.40;99.90
9564;DHT22;4820;50.870;4.702;2023-03-23T08:12:43;11.30;99.90
9564;DHT22;4820;50.870;4.702;2023-03-23T08:15:12;11.30;99.90
9564;DHT22;4820;50.870;4.702;2023-03-23T08:17:39;11.30;99.90
9564;DHT22;4820;50.870;4.702;2023-03-23T08:20:10;11.30;99.90
9564;DHT22;4820;50.870;4.702;2023-03-23T08:22:41;11.40;99.90
9564;DHT22;4820;50.870;4.702;2023-03-23T08:25:10;11.40;99.90
9564;DHT22;4820;50.870;4.702;2023-03-23T08:27:36;11.40;99.90
9564;DHT22;4820;50.870;4.702;2023-03-23T08:30:04;11.50;99.90
9564;DHT22;4820;50.870;4.702;2023-03-23T08:32:31;11.60;99.90
9564;DHT22;4820;50.870;4.702;2023-03-23T08:34:57;11.70;99.90
9564;DHT22;4820;50.870;4.702;2023-03-23T08:37:24;11.80;99.90
9564;DHT22;4820;50.870;4.702;2023-03-23T08:39:54;11.90;99.90
9564;DHT22;4820;50.870;4.702;2023-03-23T08:42:26;11.90;99.90
9564;DHT22;4820;50.870;4.702;2023-03-23T08:44:52;11.90;99.90
9564;DHT22;4820;50.870;4.702;2023-03-23T08:47:20;11.90;99.90
9564;DHT22;4820;50.870;4.702;2023-03-23T08:49:47;11.80;99.90
9564;DHT22;4820;50.870;4.702;2023-03-23T08:52:18;11.90;99.90
9564;DHT22;4820;50.870;4.702;2023-03-23T08:54:44;11.80;99.90
9564;DHT22;4820;50.870;4.702;2023-03-23T08:57:13;11.80;99.90
9564;DHT22;4820;50.870;4.702;2023-03-23T08:59:40;11.80;99.90
9564;DHT22;4820;50.870;4.702;2023-03-23T09:02:09;11.80;99.90
9564;DHT22;4820;50.870;4.702;2023-03-23T09:04:35;11.80;99.90
9564;DHT22;4820;50.870;4.702;2023-03-23T09:07:02;11.80;99.90
9564;DHT22;4820;50.870;4.702;2023-03-23T09:09:29;11.90;99.90
9564;DHT22;4820;50.870;4.702;2023-03-23T09:11:55;11.80;99.90
9564;DHT22;4820;50.870;4.702;2023-03-23T09:14:21;11.80;99.90
9564;DHT22;4820;50.870;4.702;2023-03-23T09:16:47;11.70;99.90
9564;DHT22;4820;50.870;4.702;2023-03-23T09:19:12;11.70;99.90
9564;DHT22;4820;50.870;4.702;2023-03-23T09:21:38;11.70;99.90
9564;DHT22;4820;50.870;4.702;2023-03-23T09:24:04;11.60;99.90
9564;DHT22;4820;50.870;4.702;2023-03-23T09:26:31;11.60;99.90
9564;DHT22;4820;50.870;4.702;2023-03-23T09:28:57;11.50;99.90
9564;DHT22;4820;50.870;4.702;2023-03-23T09:31:24;11.50;99.90
9564;DHT22;4820;50.870;4.702;2023-03-23T09:33:54;11.60;99.90
9564;DHT22;4820;50.870;4.702;2023-03-23T09:36:22;11.60;99.90
9564;DHT22;4820;50.870;4.702;2023-03-23T09:38:48;11.60;99.90
9564;DHT22;4820;50.870;4.702;2023-03-23T09:49:57;11.70;99.90
9564;DHT22;4820;50.870;4.702;2023-03-23T09:53:19;11.70;99.90
9564;DHT22;4820;50.870;4.702;2023-03-23T09:55:18;11.70;99.90
9564;DHT22;4820;50.870;4.702;2023-03-23T10:00:29;11.70;99.90
9564;DHT22;4820;50.870;4.702;2023-03-23T10:03:13;11.70;99.90
9564;DHT22;4820;50.870;4.702;2023-03-23T10:05:46;11.80;99.90
9564;DHT22;4820;50.870;4.702;2023-03-23T10:08:18;11.90;99.90
9564;DHT22;4820;50.870;4.702;2023-03-23T10:11:01;12.10;99.90
9564;DHT22;4820;50.870;4.702;2023-03-23T10:16:22;12.30;99.90
9564;DHT22;4820;50.870;4.702;2023-03-23T10:22:07;12.50;99.90
9564;DHT22;4820;50.870;4.702;2023-03-23T10:27:26;12.70;99.90
9564;DHT22;4820;50.870;4.702;2023-03-23T10:30:11;12.80;99.90
9564;DHT22;4820;50.870;4.702;2023-03-23T10:32:43;12.90;99.90
9564;DHT22;4820;50.870;4.702;2023-03-23T10:35:14;12.90;99.90
9564;DHT22;4820;50.870;4.702;2023-03-23T10:37:54;12.90;99.90
9564;DHT22;4820;50.870;4.702;2023-03-23T10:40:27;13.10;99.90
9564;DHT22;4820;50.870;4.702;2023-03-23T10:42:57;13.10;99.90
9564;DHT22;4820;50.870;4.702;2023-03-23T10:45:29;13.10;99.90
9564;DHT22;4820;50.870;4.702;2023-03-23T10:48:21;13.20;99.90
9564;DHT22;4820;50.870;4.702;2023-03-23T10:50:51;13.30;99.90
9564;DHT22;4820;50.870;4.702;2023-03-23T10:53:42;13.40;99.90
9564;DHT22;4820;50.870;4.702;2023-03-23T10:56:42;13.40;99.90
9564;DHT22;4820;50.870;4.702;2023-03-23T10:59:21;13.40;99.90
9564;DHT22;4820;50.870;4.702;2023-03-23T11:01:50;13.50;99.90
9564;DHT22;4820;50.870;4.702;2023-03-23T11:04:18;13.60;99.90
9564;DHT22;4820;50.870;4.702;2023-03-23T11:06:59;13.90;99.90
9564;DHT22;4820;50.870;4.702;2023-03-23T11:09:51;14.00;99.90
9564;DHT22;4820;50.870;4.702;2023-03-23T11:12:19;14.10;99.90
9564;DHT22;4820;50.870;4.702;2023-03-23T11:14:45;14.20;99.90
9564;DHT22;4820;50.870;4.702;2023-03-23T11:17:26;14.20;99.90
9564;DHT22;4820;50.870;4.702;2023-03-23T11:19:52;14.30;99.90
9564;DHT22;4820;50.870;4.702;2023-03-23T11:22:31;14.30;99.90
9564;DHT22;4820;50.870;4.702;2023-03-23T11:25:03;14.30;99.90
9564;DHT22;4820;50.870;4.702;2023-03-23T11:27:30;14.30;99.90
9564;DHT22;4820;50.870;4.702;2023-03-23T11:33:01;14.20;99.90
9564;DHT22;4820;50.870;4.702;2023-03-23T11:35:28;14.20;99.90
9564;DHT22;4820;50.870;4.702;2023-03-23T11:37:58;14.10;99.90
9564;DHT22;4820;50.870;4.702;2023-03-23T11:40:30;14.10;99.90
9564;DHT22;4820;50.870;4.702;2023-03-23T11:43:07;14.10;99.90
9564;DHT22;4820;50.870;4.702;2023-03-23T11:45:50;14.20;99.90
9564;DHT22;4820;50.870;4.702;2023-03-23T11:48:35;14.30;99.90
9564;DHT22;4820;50.870;4.702;2023-03-23T11:51:11;14.40;99.90
9564;DHT22;4820;50.870;4.702;2023-03-23T11:53:59;14.50;99.90
9564;DHT22;4820;50.870;4.702;2023-03-23T11:56:41;14.70;99.90
9564;DHT22;4820;50.870;4.702;2023-03-23T11:59:16;14.80;99.90
9564;DHT22;4820;50.870;4.702;2023-03-23T12:01:59;15.00;99.90
9564;DHT22;4820;50.870;4.702;2023-03-23T12:10:20;15.10;99.90
9564;DHT22;4820;50.870;4.702;2023-03-23T12:24:00;15.20;99.90
9564;DHT22;4820;50.870;4.702;2023-03-23T12:26:43;15.40;99.90
9564;DHT22;4820;50.870;4.702;2023-03-23T12:32:03;15.50;99.90
9564;DHT22;4820;50.870;4.702;2023-03-23T12:34:38;15.60;99.90
9564;DHT22;4820;50.870;4.702;2023-03-23T12:39:46;15.50;99.90
9564;DHT22;4820;50.870;4.702;2023-03-23T12:47:46;15.50;99.90
9564;DHT22;4820;50.870;4.702;2023-03-23T12:50:27;15.50;99.90
9564;DHT22;4820;50.870;4.702;2023-03-23T12:53:03;15.50;99.90
9564;DHT22;4820;50.870;4.702;2023-03-23T12:55:43;15.50;99.90
9564;DHT22;4820;50.870;4.702;2023-03-23T12:58:22;15.50;99.90
9564;DHT22;4820;50.870;4.702;2023-03-23T13:03:53;15.50;99.90
9564;DHT22;4820;50.870;4.702;2023-03-23T13:06:37;15.40;99.90
9564;DHT22;4820;50.870;4.702;2023-03-23T13:11:41;15.10;99.90
9564;DHT22;4820;50.870;4.702;2023-03-23T13:22:21;14.90;99.90
9564;DHT22;4820;50.870;4.702;2023-03-23T13:24:58;14.90;99.90
9564;DHT22;4820;50.870;4.702;2023-03-23T13:27:26;14.90;99.90
9564;DHT22;4820;50.870;4.702;2023-03-23T13:29:55;15.00;99.90
9564;DHT22;4820;50.870;4.702;2023-03-23T13:34:56;15.10;99.90
9564;DHT22;4820;50.870;4.702;2023-03-23T13:37:27;15.20;99.90
9564;DHT22;4820;50.870;4.702;2023-03-23T13:42:28;15.50;99.90
9564;DHT22;4820;50.870;4.702;2023-03-23T13:47:47;15.60;99.90
9564;DHT22;4820;50.870;4.702;2023-03-23T13:50:24;15.60;99.90
9564;DHT22;4820;50.870;4.702;2023-03-23T13:52:59;15.60;99.90
9564;DHT22;4820;50.870;4.702;2023-03-23T13:55:48;15.60;99.90
9564;DHT22;4820;50.870;4.702;2023-03-23T13:58:26;15.70;99.90
9564;DHT22;4820;50.870;4.702;2023-03-23T14:01:14;15.80;99.90
9564;DHT22;4820;50.870;4.702;2023-03-23T14:03:44;15.90;99.90
9564;DHT22;4820;50.870;4.702;2023-03-23T14:06:18;15.90;99.90
9564;DHT22;4820;50.870;4.702;2023-03-23T14:08:48;16.00;99.90
9564;DHT22;4820;50.870;4.702;2023-03-23T14:11:20;16.00;99.90
9564;DHT22;4820;50.870;4.702;2023-03-23T14:16:23;15.80;99.90
9564;DHT22;4820;50.870;4.702;2023-03-23T14:18:59;15.60;99.90
9564;DHT22;4820;50.870;4.702;2023-03-23T14:21:36;15.50;99.90
9564;DHT22;4820;50.870;4.702;2023-03-23T14:24:05;15.40;99.90
9564;DHT22;4820;50.870;4.702;2023-03-23T14:26:34;15.50;99.90
9564;DHT22;4820;50.870;4.702;2023-03-23T14:29:00;15.50;99.90
9564;DHT22;4820;50.870;4.702;2023-03-23T14:31:27;15.50;99.90
9564;DHT22;4820;50.870;4.702;2023-03-23T14:33:56;15.40;99.90
9564;DHT22;4820;50.870;4.702;2023-03-23T14:36:31;15.40;99.90
9564;DHT22;4820;50.870;4.702;2023-03-23T14:41:41;15.40;99.90
9564;DHT22;4820;50.870;4.702;2023-03-23T14:44:17;15.30;99.90
9564;DHT22;4820;50.870;4.702;2023-03-23T14:46:44;15.40;99.90
9564;DHT22;4820;50.870;4.702;2023-03-23T14:49:14;15.40;99.90
9564;DHT22;4820;50.870;4.702;2023-03-23T14:51:53;15.40;99.90
9564;DHT22;4820;50.870;4.702;2023-03-23T14:54:27;15.40;99.90
9564;DHT22;4820;50.870;4.702;2023-03-23T14:56:54;15.40;99.90
9564;DHT22;4820;50.870;4.702;2023-03-23T14:59:19;15.40;99.90
9564;DHT22;4820;50.870;4.702;2023-03-23T15:01:47;15.30;99.90
9564;DHT22;4820;50.870;4.702;2023-03-23T15:04:21;15.30;99.90
9564;DHT22;4820;50.870;4.702;2023-03-23T15:06:58;15.30;99.90
9564;DHT22;4820;50.870;4.702;2023-03-23T15:09:25;15.30;99.90
9564;DHT22;4820;50.870;4.702;2023-03-23T15:11:56;15.30;99.90
9564;DHT22;4820;50.870;4.702;2023-03-23T15:14:45;15.30;99.90
9564;DHT22;4820;50.870;4.702;2023-03-23T15:17:19;15.30;99.90
9564;DHT22;4820;50.870;4.702;2023-03-23T15:19:45;15.40;99.90
9564;DHT22;4820;50.870;4.702;2023-03-23T15:22:25;15.40;99.90
9564;DHT22;4820;50.870;4.702;2023-03-23T15:25:37;15.40;99.90
9564;DHT22;4820;50.870;4.702;2023-03-23T15:27:52;15.40;99.90
9564;DHT22;4820;50.870;4.702;2023-03-23T15:32:55;15.50;99.90
9564;DHT22;4820;50.870;4.702;2023-03-23T15:35:25;15.50;99.90
9564;DHT22;4820;50.870;4.702;2023-03-23T15:37:57;15.60;99.90
9564;DHT22;4820;50.870;4.702;2023-03-23T15:40:24;15.70;99.90
9564;DHT22;4820;50.870;4.702;2023-03-23T15:43:14;15.70;99.90
9564;DHT22;4820;50.870;4.702;2023-03-23T15:45:56;15.60;99.90
9564;DHT22;4820;50.870;4.702;2023-03-23T15:48:26;15.60;99.90
9564;DHT22;4820;50.870;4.702;2023-03-23T15:50:52;15.60;99.90
9564;DHT22;4820;50.870;4.702;2023-03-23T15:53:39;15.60;99.90
9564;DHT22;4820;50.870;4.702;2023-03-23T15:56:07;15.60;99.90
9564;DHT22;4820;50.870;4.702;2023-03-23T15:58:34;15.60;99.90
9564;DHT22;4820;50.870;4.702;2023-03-23T16:01:04;15.50;99.90
9564;DHT22;4820;50.870;4.702;2023-03-23T16:03:46;15.50;99.90
9564;DHT22;4820;50.870;4.702;2023-03-23T16:06:14;15.40;99.90
9564;DHT22;4820;50.870;4.702;2023-03-23T16:08:41;15.40;99.90
9564;DHT22;4820;50.870;4.702;2023-03-23T16:11:10;15.40;99.90
9564;DHT22;4820;50.870;4.702;2023-03-23T16:13:37;15.40;99.90
9564;DHT22;4820;50.870;4.702;2023-03-23T16:16:04;15.40;99.90
9564;DHT22;4820;50.870;4.702;2023-03-23T16:18:30;15.40;99.90
9564;DHT22;4820;50.870;4.702;2023-03-23T16:20:56;15.40;99.90
9564;DHT22;4820;50.870;4.702;2023-03-23T16:23:22;15.50;99.90
9564;DHT22;4820;50.870;4.702;2023-03-23T16:25:48;15.50;99.90
9564;DHT22;4820;50.870;4.702;2023-03-23T16:28:15;15.50;99.90
9564;DHT22;4820;50.870;4.702;2023-03-23T16:30:42;15.50;99.90
9564;DHT22;4820;50.870;4.702;2023-03-23T16:33:08;15.60;99.90
9564;DHT22;4820;50.870;4.702;2023-03-23T16:35:35;15.60;99.90
9564;DHT22;4820;50.870;4.702;2023-03-23T16:38:02;15.50;99.90
9564;DHT22;4820;50.870;4.702;2023-03-23T16:40:27;15.50;99.90
9564;DHT22;4820;50.870;4.702;2023-03-23T16:42:53;15.50;99.90
9564;DHT22;4820;50.870;4.702;2023-03-23T16:45:20;15.40;99.90
9564;DHT22;4820;50.870;4.702;2023-03-23T16:47:46;15.50;99.90
9564;DHT22;4820;50.870;4.702;2023-03-23T16:50:14;15.60;99.90
9564;DHT22;4820;50.870;4.702;2023-03-23T16:52:41;15.60;99.90
9564;DHT22;4820;50.870;4.702;2023-03-23T16:55:09;15.50;99.90
9564;DHT22;4820;50.870;4.702;2023-03-23T16:57:36;15.50;99.90
9564;DHT22;4820;50.870;4.702;2023-03-23T17:00:09;15.40;99.90
9564;DHT22;4820;50.870;4.702;2023-03-23T17:02:42;15.40;99.90
9564;DHT22;4820;50.870;4.702;2023-03-23T17:05:09;15.30;99.90
9564;DHT22;4820;50.870;4.702;2023-03-23T17:07:37;15.30;99.90
9564;DHT22;4820;50.870;4.702;2023-03-23T17:10:03;15.30;99.90
9564;DHT22;4820;50.870;4.702;2023-03-23T17:12:31;15.30;99.90
9564;DHT22;4820;50.870;4.702;2023-03-23T17:14:57;15.30;99.90
9564;DHT22;4820;50.870;4.702;2023-03-23T17:17:23;15.30;99.90
9564;DHT22;4820;50.870;4.702;2023-03-23T17:19:50;15.30;99.90
9564;DHT22;4820;50.870;4.702;2023-03-23T17:22:16;15.20;99.90
9564;DHT22;4820;50.870;4.702;2023-03-23T17:24:42;15.20;99.90
9564;DHT22;4820;50.870;4.702;2023-03-23T17:27:16;15.20;99.90
9564;DHT22;4820;50.870;4.702;2023-03-23T17:29:43;15.20;99.90
9564;DHT22;4820;50.870;4.702;2023-03-23T17:32:09;15.20;99.90
9564;DHT22;4820;50.870;4.702;2023-03-23T17:34:35;15.10;99.90
9564;DHT22;4820;50.870;4.702;2023-03-23T17:37:00;15.10;99.90
9564;DHT22;4820;50.870;4.702;2023-03-23T17:39:35;15.00;99.90
9564;DHT22;4820;50.870;4.702;2023-03-23T17:42:04;15.10;99.90
9564;DHT22;4820;50.870;4.702;2023-03-23T17:44:30;15.10;99.90
9564;DHT22;4820;50.870;4.702;2023-03-23T17:47:01;15.10;99.90
9564;DHT22;4820;50.870;4.702;2023-03-23T17:49:27;15.10;99.90
9564;DHT22;4820;50.870;4.702;2023-03-23T17:51:56;15.10;99.90
9564;DHT22;4820;50.870;4.702;2023-03-23T17:54:25;15.10;99.90
9564;DHT22;4820;50.870;4.702;2023-03-23T17:56:55;15.10;99.90
9564;DHT22;4820;50.870;4.702;2023-03-23T17:59:23;15.10;99.90